createdAt,value
2022-10-25T00:01:02.985Z,97175.91
2022-10-25T00:03:31.124Z,97161.53
2022-10-25T00:05:59.332Z,97156.03
2022-10-25T00:08:27.411Z,97156.88
2022-10-25T00:10:55.471Z,97158.16
2022-10-25T00:13:23.645Z,97164.47
2022-10-25T00:15:51.715Z,97171.75
2022-10-25T00:18:21.239Z,97165.97
2022-10-25T00:20:49.394Z,97170.00
2022-10-25T00:23:18.304Z,97161.13
2022-10-25T00:25:46.401Z,97174.19
2022-10-25T00:28:14.551Z,97156.91
2022-10-25T00:30:42.641Z,97172.13
2022-10-25T00:33:10.711Z,97174.47
2022-10-25T00:35:40.222Z,97178.28
2022-10-25T00:38:08.311Z,97167.41
2022-10-25T00:40:36.431Z,97183.69
2022-10-25T00:43:04.563Z,97184.34
2022-10-25T00:45:32.713Z,97191.28
2022-10-25T00:48:02.943Z,97182.50
2022-10-25T00:50:37.402Z,97190.78
2022-10-25T00:53:10.601Z,97192.63
2022-10-25T00:55:39.993Z,97182.72
2022-10-25T00:58:10.621Z,97188.38
2022-10-25T01:00:38.801Z,97187.28
2022-10-25T01:03:07.503Z,97191.13
2022-10-25T01:05:35.861Z,97191.53
2022-10-25T01:08:04.229Z,97192.84
2022-10-25T01:10:34.300Z,97191.41
2022-10-25T01:13:02.841Z,97192.25
2022-10-25T01:15:35.442Z,97193.09
2022-10-25T01:18:12.279Z,97195.25
2022-10-25T01:20:52.741Z,97205.19
2022-10-25T01:23:42.831Z,97207.19
2022-10-25T01:26:35.201Z,97209.88
2022-10-25T01:29:22.841Z,97210.53
2022-10-25T01:31:55.542Z,97193.88
2022-10-25T01:34:28.120Z,97198.63
2022-10-25T01:37:03.221Z,97193.72
2022-10-25T01:39:34.547Z,97192.53
2022-10-25T01:42:06.290Z,97183.81
2022-10-25T01:44:41.212Z,97191.69
2022-10-25T01:47:14.811Z,97184.13
2022-10-25T01:49:45.960Z,97196.31
2022-10-25T01:52:51.554Z,97191.72
2022-10-25T01:55:20.932Z,97199.50
2022-10-25T01:58:00.016Z,97207.41
2022-10-25T02:00:28.778Z,97215.88
2022-10-25T02:03:11.383Z,97208.78
2022-10-25T02:05:50.064Z,97216.22
2022-10-25T02:08:25.923Z,97212.91
2022-10-25T02:11:00.897Z,97213.91
2022-10-25T02:13:32.063Z,97215.88
2022-10-25T02:16:02.443Z,97213.59
2022-10-25T02:18:35.111Z,97214.88
2022-10-25T02:21:04.477Z,97213.41
2022-10-25T02:23:34.525Z,97209.63
2022-10-25T02:26:03.107Z,97203.19
2022-10-25T02:28:31.765Z,97208.66
2022-10-25T02:31:00.307Z,97201.22
2022-10-25T02:33:28.492Z,97210.31
2022-10-25T02:36:14.795Z,97202.06
2022-10-25T02:38:44.079Z,97201.25
2022-10-25T02:41:12.328Z,97203.53
2022-10-25T02:43:40.457Z,97205.19
2022-10-25T02:46:09.930Z,97204.38
2022-10-25T02:48:38.638Z,97211.44
2022-10-25T02:51:07.247Z,97214.28
2022-10-25T02:53:37.369Z,97206.03
2022-10-25T02:56:07.551Z,97209.31
2022-10-25T02:58:38.089Z,97213.94
2022-10-25T03:01:07.086Z,97216.72
2022-10-25T03:03:35.867Z,97215.41
2022-10-25T03:06:04.489Z,97213.09
2022-10-25T03:08:32.974Z,97212.44
2022-10-25T03:11:02.576Z,97211.63
2022-10-25T03:13:30.709Z,97204.53
2022-10-25T03:15:58.930Z,97214.25
2022-10-25T03:18:27.137Z,97219.03
2022-10-25T03:20:58.075Z,97210.63
2022-10-25T03:23:26.367Z,97221.50
2022-10-25T03:25:54.647Z,97222.97
2022-10-25T03:28:24.405Z,97226.75
2022-10-25T03:30:52.708Z,97227.41
2022-10-25T03:33:21.261Z,97227.38
2022-10-25T03:35:52.007Z,97225.53
2022-10-25T03:38:20.378Z,97231.00
2022-10-25T03:40:48.466Z,97234.09
2022-10-25T03:43:16.638Z,97230.16
2022-10-25T03:45:46.287Z,97233.84
2022-10-25T03:48:15.917Z,97247.81
2022-10-25T03:50:44.340Z,97238.78
2022-10-25T03:53:12.795Z,97249.16
2022-10-25T03:55:41.170Z,97245.72
2022-10-25T03:58:09.348Z,97240.44
2022-10-25T04:00:37.551Z,97245.72
2022-10-25T04:05:40.128Z,97253.16
2022-10-25T04:08:08.348Z,97255.44
2022-10-25T04:10:36.698Z,97250.81
2022-10-25T04:13:04.788Z,97256.06
2022-10-25T04:15:33.215Z,97255.78
2022-10-25T04:18:01.330Z,97253.75
2022-10-25T04:20:30.873Z,97264.81
2022-10-25T04:22:59.449Z,97263.31
2022-10-25T04:25:28.998Z,97260.88
2022-10-25T04:27:57.367Z,97264.50
2022-10-25T04:30:25.552Z,97267.31
2022-10-25T04:32:53.617Z,97258.72
2022-10-25T04:35:21.841Z,97268.13
2022-10-25T04:37:52.100Z,97267.59
2022-10-25T04:40:22.656Z,97266.94
2022-10-25T04:42:52.190Z,97260.66
2022-10-25T04:45:20.350Z,97259.69
2022-10-25T04:47:48.747Z,97257.56
2022-10-25T04:50:17.517Z,97261.31
2022-10-25T04:52:45.924Z,97253.28
2022-10-25T04:55:16.309Z,97261.97
2022-10-25T04:57:44.525Z,97261.97
2022-10-25T05:00:13.860Z,97260.50
2022-10-25T05:02:42.167Z,97267.91
2022-10-25T05:05:11.041Z,97261.84
2022-10-25T05:07:39.428Z,97276.00
2022-10-25T05:10:08.066Z,97276.50
2022-10-25T05:12:37.734Z,97278.97
2022-10-25T05:15:07.056Z,97286.56
2022-10-25T05:17:35.341Z,97287.72
2022-10-25T05:20:05.071Z,97288.22
2022-10-25T05:22:33.290Z,97286.69
2022-10-25T05:25:01.448Z,97290.00
2022-10-25T05:27:29.777Z,97287.88
2022-10-25T05:29:59.417Z,97298.06
2022-10-25T05:32:27.741Z,97289.00
2022-10-25T05:34:55.958Z,97281.78
2022-10-25T05:37:24.218Z,97288.53
2022-10-25T05:39:52.497Z,97290.19
2022-10-25T05:42:20.800Z,97298.56
2022-10-25T05:44:49.020Z,97299.88
2022-10-25T05:47:18.689Z,97297.09
2022-10-25T05:49:46.909Z,97300.41
2022-10-25T05:52:15.708Z,97300.53
2022-10-25T05:54:43.921Z,97299.56
2022-10-25T05:57:12.326Z,97309.78
2022-10-25T05:59:40.548Z,97307.16
2022-10-25T06:02:11.213Z,97310.63
2022-10-25T06:04:40.915Z,97307.19
2022-10-25T06:07:09.196Z,97316.44
2022-10-25T06:09:37.377Z,97312.00
2022-10-25T06:12:08.865Z,97319.06
2022-10-25T06:14:37.908Z,97324.03
2022-10-25T06:17:06.820Z,97330.13
2022-10-25T06:19:35.012Z,97327.66
2022-10-25T06:22:05.318Z,97323.69
2022-10-25T06:24:33.525Z,97330.63
2022-10-25T06:27:01.811Z,97334.59
2022-10-25T06:29:30.021Z,97339.72
2022-10-25T06:31:58.267Z,97336.75
2022-10-25T06:34:26.481Z,97343.88
2022-10-25T06:36:54.738Z,97345.50
2022-10-25T06:39:24.390Z,97345.69
2022-10-25T06:41:52.692Z,97350.81
2022-10-25T06:44:20.901Z,97358.41
2022-10-25T06:49:37.388Z,97353.47
2022-10-25T06:52:05.719Z,97352.47
2022-10-25T06:54:35.987Z,97351.81
2022-10-25T06:57:04.357Z,97350.16
2022-10-25T06:59:32.660Z,97352.97
2022-10-25T07:02:01.012Z,97350.97
2022-10-25T07:04:32.662Z,97368.97
2022-10-25T07:07:01.038Z,97360.38
2022-10-25T07:09:29.642Z,97370.28
2022-10-25T07:11:59.270Z,97364.50
2022-10-25T07:14:27.646Z,97363.31
2022-10-25T07:16:55.871Z,97366.59
2022-10-25T07:19:25.080Z,97375.66
2022-10-25T07:21:53.490Z,97374.97
2022-10-25T07:24:21.759Z,97383.19
2022-10-25T07:26:49.988Z,97383.78
2022-10-25T07:29:19.717Z,97384.44
2022-10-25T07:31:47.957Z,97376.16
2022-10-25T07:34:16.748Z,97387.19
2022-10-25T07:36:45.748Z,97383.00
2022-10-25T07:39:14.259Z,97394.75
2022-10-25T07:41:42.551Z,97393.59
2022-10-25T07:44:15.961Z,97399.97
2022-10-25T07:46:46.429Z,97396.47
2022-10-25T07:49:14.853Z,97405.28
2022-10-25T07:51:43.333Z,97409.84
2022-10-25T07:54:11.599Z,97408.59
2022-10-25T07:56:39.788Z,97398.34
2022-10-25T07:59:08.091Z,97412.22
2022-10-25T08:01:36.872Z,97412.75
2022-10-25T08:04:06.822Z,97404.91
2022-10-25T08:06:36.501Z,97408.69
2022-10-25T08:09:14.425Z,97415.31
2022-10-25T08:11:48.680Z,97412.78
2022-10-25T08:14:17.155Z,97412.50
2022-10-25T08:16:45.487Z,97412.69
2022-10-25T08:19:15.169Z,97413.69
2022-10-25T08:21:44.005Z,97411.22
2022-10-25T08:24:12.433Z,97415.28
2022-10-25T08:26:41.309Z,97413.81
2022-10-25T08:29:09.589Z,97412.63
2022-10-25T08:31:37.917Z,97416.06
2022-10-25T08:34:06.641Z,97409.34
2022-10-25T08:36:36.399Z,97400.41
2022-10-25T08:39:04.617Z,97381.78
2022-10-25T08:41:41.008Z,97363.28
2022-10-25T08:44:19.901Z,97352.13
2022-10-25T08:46:55.098Z,97354.22
2022-10-25T08:49:26.910Z,97370.63
2022-10-25T08:51:57.467Z,97363.78
2022-10-25T08:54:30.578Z,97359.06
2022-10-25T08:57:16.300Z,97355.69
2022-10-25T08:59:48.448Z,97356.78
2022-10-25T09:02:24.502Z,97358.56
2022-10-25T09:04:52.886Z,97367.00
2022-10-25T09:07:46.409Z,97375.13
2022-10-25T09:10:23.493Z,97376.56
2022-10-25T09:12:58.870Z,97369.94
2022-10-25T09:15:42.132Z,97369.19
2022-10-25T09:18:17.608Z,97366.38
2022-10-25T09:20:50.167Z,97366.38
2022-10-25T09:23:26.167Z,97377.88
2022-10-25T09:26:00.568Z,97376.28
2022-10-25T09:28:35.231Z,97381.16
2022-10-25T09:31:05.208Z,97374.59
2022-10-25T09:33:34.688Z,97379.16
2022-10-25T09:36:05.677Z,97382.47
2022-10-25T09:38:40.331Z,97375.53
2022-10-25T09:41:14.728Z,97366.50
2022-10-25T09:43:47.678Z,97371.00
2022-10-25T09:46:19.362Z,97363.00
2022-10-25T09:48:54.011Z,97360.78
2022-10-25T09:51:26.338Z,97371.03
2022-10-25T09:53:56.838Z,97373.44
2022-10-25T09:56:25.097Z,97384.72
2022-10-25T09:58:53.380Z,97378.53
2022-10-25T10:01:26.497Z,97377.94
2022-10-25T10:03:56.917Z,97380.22
2022-10-25T10:06:29.808Z,97373.00
2022-10-25T10:09:03.071Z,97374.53
2022-10-25T10:11:32.165Z,97367.16
2022-10-25T10:14:06.143Z,97374.31
2022-10-25T10:16:42.867Z,97381.91
2022-10-25T10:19:16.189Z,97382.16
2022-10-25T10:21:44.997Z,97378.84
2022-10-25T10:24:19.118Z,97373.72
2022-10-25T10:26:49.487Z,97382.75
2022-10-25T10:29:21.247Z,97377.22
2022-10-25T10:31:52.242Z,97379.09
2022-10-25T10:34:28.873Z,97370.44
2022-10-25T10:37:05.566Z,97373.09
2022-10-25T10:39:35.618Z,97365.94
2022-10-25T10:42:16.017Z,97373.50
2022-10-25T10:45:02.329Z,97370.56
2022-10-25T10:47:34.427Z,97352.03
2022-10-25T10:50:03.053Z,97363.25
2022-10-25T10:52:33.708Z,97346.59
2022-10-25T10:55:03.707Z,97347.28
2022-10-25T10:57:34.179Z,97336.47
2022-10-25T11:00:02.799Z,97336.09
2022-10-25T11:02:39.488Z,97330.03
2022-10-25T11:05:21.128Z,97334.88
2022-10-25T11:07:56.466Z,97337.84
2022-10-25T11:10:33.585Z,97324.44
2022-10-25T11:13:10.077Z,97339.59
2022-10-25T11:16:15.937Z,97338.16
2022-10-25T11:18:51.750Z,97338.47
2022-10-25T11:21:34.697Z,97336.88
2022-10-25T11:24:10.176Z,97322.13
2022-10-25T11:26:50.050Z,97323.00
2022-10-25T11:29:25.081Z,97325.38
2022-10-25T11:31:59.617Z,97320.31
2022-10-25T11:34:34.491Z,97323.72
2022-10-25T11:37:09.978Z,97318.19
2022-10-25T11:39:52.388Z,97307.56
2022-10-25T11:42:44.493Z,97303.09
2022-10-25T11:45:34.532Z,97313.19
2022-10-25T11:48:24.278Z,97308.81
2022-10-25T11:51:00.759Z,97310.78
2022-10-25T11:53:49.827Z,97312.09
2022-10-25T11:56:24.938Z,97310.19
2022-10-25T11:59:03.078Z,97304.28
2022-10-25T12:01:41.358Z,97302.47
2022-10-25T12:04:26.889Z,97304.94
2022-10-25T12:07:04.318Z,97300.75
2022-10-25T12:09:39.141Z,97310.34
2022-10-25T12:12:11.378Z,97301.63
2022-10-25T12:14:43.490Z,97302.47
2022-10-25T12:17:21.127Z,97301.19
2022-10-25T12:19:51.640Z,97301.41
2022-10-25T12:22:22.669Z,97291.22
2022-10-25T12:24:53.326Z,97292.22
2022-10-25T12:27:23.195Z,97291.66
2022-10-25T12:29:55.808Z,97294.13
2022-10-25T12:32:28.757Z,97293.53
2022-10-25T12:34:59.250Z,97292.56
2022-10-25T12:37:32.055Z,97287.75
2022-10-25T12:40:00.301Z,97286.38
2022-10-25T12:42:31.529Z,97290.47
2022-10-25T12:45:13.258Z,97284.22
2022-10-25T12:47:48.260Z,97284.38
2022-10-25T12:50:47.458Z,97281.25
2022-10-25T12:53:53.860Z,97280.25
2022-10-25T12:56:32.095Z,97277.06
2022-10-25T12:59:07.578Z,97280.88
2022-10-25T13:01:50.701Z,97274.94
2022-10-25T13:04:58.376Z,97269.22
2022-10-25T13:07:26.795Z,97272.94
2022-10-25T13:09:55.468Z,97273.75
2022-10-25T13:12:26.480Z,97268.38
2022-10-25T13:14:56.163Z,97279.25
2022-10-25T13:17:56.481Z,97274.34
2022-10-25T13:20:46.954Z,97273.03
2022-10-25T13:24:03.096Z,97268.50
2022-10-25T13:27:15.191Z,97268.56
2022-10-25T13:29:48.897Z,97269.75
2022-10-25T13:32:20.109Z,97269.03
2022-10-25T13:34:50.097Z,97267.13
2022-10-25T13:37:41.159Z,97263.56
2022-10-25T13:40:20.949Z,97267.72
2022-10-25T13:42:50.833Z,97269.72
2022-10-25T13:45:24.259Z,97266.66
2022-10-25T13:47:54.140Z,97265.16
2022-10-25T13:50:28.746Z,97266.38
2022-10-25T13:53:02.966Z,97259.66
2022-10-25T13:55:35.137Z,97262.97
2022-10-25T13:58:03.536Z,97275.72
2022-10-25T14:00:41.654Z,97272.47
2022-10-25T14:03:36.747Z,97268.38
2022-10-25T14:06:27.753Z,97277.41
2022-10-25T14:09:10.044Z,97275.13
2022-10-25T14:11:41.540Z,97271.78
2022-10-25T14:14:24.518Z,97270.78
2022-10-25T14:17:13.288Z,97276.13
2022-10-25T14:19:43.797Z,97277.09
2022-10-25T14:22:16.482Z,97275.34
2022-10-25T14:24:45.467Z,97268.88
2022-10-25T14:27:30.421Z,97273.66
2022-10-25T14:30:24.798Z,97276.59
2022-10-25T14:32:54.440Z,97271.84
2022-10-25T14:35:23.450Z,97276.84
2022-10-25T14:37:53.217Z,97275.66
2022-10-25T14:40:23.212Z,97260.25
2022-10-25T14:42:51.596Z,97261.63
2022-10-25T14:45:23.477Z,97260.34
2022-10-25T14:47:51.938Z,97266.97
2022-10-25T14:50:23.505Z,97264.34
2022-10-25T14:52:56.783Z,97258.53
2022-10-25T14:55:31.060Z,97249.72
2022-10-25T14:58:00.300Z,97251.50
2022-10-25T15:00:28.724Z,97256.56
2022-10-25T15:02:58.698Z,97262.97
2022-10-25T15:05:27.757Z,97253.44
2022-10-25T15:07:58.355Z,97256.56
2022-10-25T15:10:47.557Z,97260.41
2022-10-25T15:13:17.828Z,97258.03
2022-10-25T15:15:47.598Z,97253.53
2022-10-25T15:18:31.808Z,97251.19
2022-10-25T15:21:14.077Z,97257.97
2022-10-25T15:23:44.820Z,97269.91
2022-10-25T15:26:24.241Z,97263.34
2022-10-25T15:28:54.560Z,97253.75
2022-10-25T15:31:24.873Z,97265.44
2022-10-25T15:34:00.330Z,97269.56
2022-10-25T15:36:29.822Z,97269.75
2022-10-25T15:39:11.694Z,97273.84
2022-10-25T15:41:42.467Z,97265.44
2022-10-25T15:44:10.519Z,97277.53
2022-10-25T15:46:38.668Z,97268.69
2022-10-25T15:49:08.634Z,97270.88
2022-10-25T15:51:39.974Z,97271.84
2022-10-25T15:54:15.028Z,97269.28
2022-10-25T15:56:43.107Z,97271.84
2022-10-25T15:59:11.418Z,97281.75
2022-10-25T16:01:41.926Z,97283.88
2022-10-25T16:04:14.717Z,97288.22
2022-10-25T16:06:42.948Z,97281.31
2022-10-25T16:09:12.771Z,97286.47
2022-10-25T16:11:46.295Z,97292.91
2022-10-25T16:14:20.347Z,97288.09
2022-10-25T16:16:48.436Z,97289.16
2022-10-25T16:19:17.711Z,97299.38
2022-10-25T16:21:46.138Z,97296.75
2022-10-25T16:24:16.007Z,97302.34
2022-10-25T16:26:45.322Z,97306.66
2022-10-25T16:29:17.418Z,97305.28
2022-10-25T16:31:45.748Z,97294.03
2022-10-25T16:34:15.725Z,97306.34
2022-10-25T16:36:43.935Z,97315.19
2022-10-25T16:39:12.693Z,97308.53
2022-10-25T16:41:43.697Z,97310.22
2022-10-25T16:44:13.287Z,97322.16
2022-10-25T16:46:41.478Z,97322.75
2022-10-25T16:49:10.419Z,97324.84
2022-10-25T16:51:39.219Z,97328.50
2022-10-25T16:54:09.565Z,97330.38
2022-10-25T16:56:38.546Z,97337.56
2022-10-25T16:59:09.596Z,97333.31
2022-10-25T17:01:43.717Z,97328.41
2022-10-25T17:04:13.636Z,97336.31
2022-10-25T17:06:44.301Z,97334.41
2022-10-25T17:09:12.640Z,97331.63
2022-10-25T17:11:41.066Z,97325.34
2022-10-25T17:14:11.570Z,97334.63
2022-10-25T17:16:40.928Z,97334.97
2022-10-25T17:19:10.477Z,97333.03
2022-10-25T17:21:38.607Z,97321.66
2022-10-25T17:24:09.843Z,97320.41
2022-10-25T17:26:38.378Z,97333.13
2022-10-25T17:29:06.712Z,97337.13
2022-10-25T17:31:36.699Z,97338.66
2022-10-25T17:34:05.467Z,97331.38
2022-10-25T17:36:33.627Z,97340.75
2022-10-25T17:39:02.220Z,97335.66
2022-10-25T17:41:30.300Z,97346.59
2022-10-25T17:43:58.537Z,97344.81
2022-10-25T17:46:29.297Z,97350.59
2022-10-25T17:49:03.364Z,97348.97
2022-10-25T17:51:32.126Z,97349.66
2022-10-25T17:54:00.338Z,97351.28
2022-10-25T17:56:29.217Z,97354.25
2022-10-25T17:59:02.110Z,97350.63
2022-10-25T18:01:32.916Z,97355.44
2022-10-25T18:04:02.456Z,97357.59
2022-10-25T18:06:31.070Z,97361.72
2022-10-25T18:09:00.158Z,97366.66
2022-10-25T18:11:29.297Z,97362.72
2022-10-25T18:13:58.667Z,97361.72
2022-10-25T18:16:27.517Z,97364.84
2022-10-25T18:18:57.167Z,97359.59
2022-10-25T18:21:27.139Z,97358.22
2022-10-25T18:23:56.108Z,97356.25
2022-10-25T18:26:25.297Z,97355.59
2022-10-25T18:28:53.535Z,97347.19
2022-10-25T18:31:22.787Z,97349.97
2022-10-25T18:33:50.948Z,97355.75
2022-10-25T18:36:21.977Z,97358.22
2022-10-25T18:38:51.711Z,97362.03
2022-10-25T18:41:22.079Z,97367.78
2022-10-25T18:43:51.457Z,97363.50
2022-10-25T18:46:19.847Z,97369.59
2022-10-25T18:48:51.667Z,97357.38
2022-10-25T18:51:21.148Z,97358.38
2022-10-25T18:53:49.730Z,97356.72
2022-10-25T18:56:21.288Z,97362.47
2022-10-25T18:58:50.611Z,97358.53
2022-10-25T19:01:20.646Z,97355.22
2022-10-25T19:03:49.080Z,97359.69
2022-10-25T19:06:17.449Z,97360.47
2022-10-25T19:08:45.946Z,97363.59
2022-10-25T19:11:16.438Z,97344.97
2022-10-25T19:13:48.969Z,97351.41
2022-10-25T19:16:19.617Z,97350.59
2022-10-25T19:18:47.792Z,97342.66
2022-10-25T19:21:18.622Z,97347.56
2022-10-25T19:23:47.281Z,97339.97
2022-10-25T19:26:17.865Z,97341.34
2022-10-25T19:28:47.899Z,97346.44
2022-10-25T19:31:17.877Z,97348.09
2022-10-25T19:33:46.867Z,97346.97
2022-10-25T19:36:15.374Z,97339.19
2022-10-25T19:38:45.348Z,97355.84
2022-10-25T19:41:16.196Z,97351.38
2022-10-25T19:43:44.612Z,97352.00
2022-10-25T19:46:14.600Z,97348.72
2022-10-25T19:48:43.372Z,97350.06
2022-10-25T19:51:13.128Z,97334.56
2022-10-25T19:53:41.480Z,97339.97
2022-10-25T19:56:10.998Z,97338.78
2022-10-25T19:58:39.362Z,97325.91
2022-10-25T20:01:09.559Z,97333.34
2022-10-25T20:03:40.081Z,97325.56
2022-10-25T20:06:10.026Z,97327.75
2022-10-25T20:08:39.520Z,97328.88
2022-10-25T20:11:08.448Z,97335.78
2022-10-25T20:13:36.848Z,97334.16
2022-10-25T20:16:06.148Z,97332.50
2022-10-25T20:18:35.728Z,97328.19
2022-10-25T20:21:07.865Z,97326.66
2022-10-25T20:23:36.475Z,97326.47
2022-10-25T20:26:13.096Z,97329.13
2022-10-25T20:28:41.318Z,97328.75
2022-10-25T20:31:09.579Z,97336.97
2022-10-25T20:33:37.958Z,97341.38
2022-10-25T20:36:09.742Z,97335.97
2022-10-25T20:38:38.912Z,97349.78
2022-10-25T20:41:08.468Z,97329.03
2022-10-25T20:43:36.817Z,97322.56
2022-10-25T20:46:06.048Z,97316.28
2022-10-25T20:48:34.677Z,97331.75
2022-10-25T20:51:06.761Z,97326.81
2022-10-25T20:53:38.650Z,97338.19
2022-10-25T20:56:07.695Z,97328.78
2022-10-25T20:58:36.258Z,97327.78
2022-10-25T21:01:04.681Z,97329.94
2022-10-25T21:03:33.297Z,97334.53
2022-10-25T21:06:03.550Z,97330.25
2022-10-25T21:08:32.165Z,97322.34
2022-10-25T21:11:03.057Z,97320.47
2022-10-25T21:13:32.819Z,97331.81
2022-10-25T21:16:03.426Z,97336.41
2022-10-25T21:18:31.617Z,97338.91
2022-10-25T21:21:02.544Z,97342.50
2022-10-25T21:23:31.277Z,97335.25
2022-10-25T21:26:01.219Z,97336.22
2022-10-25T21:28:33.497Z,97330.44
2022-10-25T21:31:02.898Z,97335.66
2022-10-25T21:33:31.319Z,97336.75
2022-10-25T21:36:04.071Z,97338.88
2022-10-25T21:38:32.320Z,97329.72
2022-10-25T21:41:09.797Z,97328.56
2022-10-25T21:43:38.424Z,97334.97
2022-10-25T21:46:07.678Z,97328.25
2022-10-25T21:48:36.438Z,97330.06
2022-10-25T21:51:05.207Z,97326.44
2022-10-25T21:53:33.588Z,97330.22
2022-10-25T21:56:11.790Z,97330.59
2022-10-25T21:58:40.476Z,97312.44
2022-10-25T22:01:09.546Z,97323.78
2022-10-25T22:03:37.969Z,97323.69
2022-10-25T22:06:07.858Z,97329.75
2022-10-25T22:08:36.168Z,97319.03
2022-10-25T22:11:06.261Z,97320.47
2022-10-25T22:13:36.142Z,97311.41
2022-10-25T22:16:06.378Z,97311.41
2022-10-25T22:18:34.921Z,97316.19
2022-10-25T22:21:05.190Z,97302.00
2022-10-25T22:23:34.048Z,97302.91
2022-10-25T22:26:03.758Z,97300.28
2022-10-25T22:28:34.239Z,97292.56
2022-10-25T22:31:08.966Z,97296.66
2022-10-25T22:33:37.471Z,97303.75
2022-10-25T22:36:07.033Z,97294.50
2022-10-25T22:38:35.688Z,97286.13
2022-10-25T22:41:05.607Z,97285.63
2022-10-25T22:43:35.811Z,97291.78
2022-10-25T22:46:06.397Z,97288.97
2022-10-25T22:48:35.711Z,97286.03
2022-10-25T22:51:04.123Z,97289.81
2022-10-25T22:53:32.862Z,97280.06
2022-10-25T22:56:02.491Z,97291.94
2022-10-25T22:58:32.816Z,97295.28
2022-10-25T23:03:34.770Z,97300.03
2022-10-25T23:06:03.996Z,97298.06
2022-10-25T23:08:32.818Z,97300.41
2022-10-25T23:11:02.125Z,97291.34
2022-10-25T23:13:30.611Z,97295.47
2022-10-25T23:15:58.887Z,97301.41
2022-10-25T23:18:27.500Z,97288.78
2022-10-25T23:20:58.260Z,97287.78
2022-10-25T23:23:27.547Z,97284.31
2022-10-25T23:25:56.082Z,97281.88
2022-10-25T23:28:24.430Z,97283.03
2022-10-25T23:30:52.721Z,97275.22
2022-10-25T23:33:21.055Z,97283.13
2022-10-25T23:35:49.257Z,97270.78
2022-10-25T23:38:18.935Z,97278.34
2022-10-25T23:40:48.172Z,97282.59
2022-10-25T23:43:16.608Z,97287.19
2022-10-25T23:45:44.757Z,97288.53
2022-10-25T23:48:13.058Z,97275.69
2022-10-25T23:50:41.267Z,97286.72
2022-10-25T23:53:09.791Z,97285.16
2022-10-25T23:55:40.030Z,97293.03
2022-10-25T23:58:08.311Z,97290.13
